Time;durP1;ratioP1;P1;durP2;ratioP2;P2;SDS_P1;SDS_P2;PMS_P1;PMS_P2;Temp;Humidity;BMP_temperature;BMP_pressure;BME280_temperature;BME280_humidity;BME280_pressure;Samples;Min_cycle;Max_cycle;Signal;HPM_P1;HPM_P2
2022/04/08 00:01:28;;;;;;;0.63;0.40;;;;;;;;;;4938860;29;20107;-69
2022/04/08 00:03:54;;;;;;;0.50;0.50;;;;;;;;;;4938585;29;20468;-69
2022/04/08 00:06:20;;;;;;;0.40;0.40;;;;;;;;;;4939155;29;20111;-70
2022/04/08 00:08:46;;;;;;;0.55;0.32;;;;;;;;;;4938769;29;20016;-69
2022/04/08 00:11:12;;;;;;;0.60;0.40;;;;;;;;;;4938291;29;20059;-69
2022/04/08 00:13:37;;;;;;;0.57;0.40;;;;;;;;;;4939145;29;20019;-70
2022/04/08 00:16:03;;;;;;;0.55;0.35;;;;;;;;;;4939060;29;20047;-71
2022/04/08 00:18:29;;;;;;;0.60;0.40;;;;;;;;;;4938324;29;20036;-70
2022/04/08 00:20:55;;;;;;;0.68;0.60;;;;;;;;;;4938539;29;20464;-69
2022/04/08 00:23:21;;;;;;;1.30;0.80;;;;;;;;;;4922083;29;20031;-70
2022/04/08 00:25:46;;;;;;;1.23;0.82;;;;;;;;;;4937122;29;20054;-69
2022/04/08 00:28:11;;;;;;;1.13;1.00;;;;;;;;;;4938477;29;20028;-68
2022/04/08 00:30:37;;;;;;;1.92;1.33;;;;;;;;;;4937970;29;20036;-69
2022/04/08 00:33:02;;;;;;;2.78;1.10;;;;;;;;;;4938686;29;20103;-69
2022/04/08 00:35:28;;;;;;;2.80;1.00;;;;;;;;;;4938017;29;20476;-70
2022/04/08 00:37:53;;;;;;;3.95;1.25;;;;;;;;;;4938293;29;20099;-69
2022/04/08 00:40:18;;;;;;;1.90;0.88;;;;;;;;;;4937898;29;20456;-69
2022/04/08 00:42:44;;;;;;;2.67;1.15;;;;;;;;;;4937935;29;20027;-69
2022/04/08 00:45:10;;;;;;;2.33;1.27;;;;;;;;;;4937892;29;20456;-69
2022/04/08 00:47:36;;;;;;;5.25;1.65;;;;;;;;;;4937804;29;20023;-69
2022/04/08 00:50:14;;;;;;;3.97;1.45;;;;;;;;;;4938443;29;20047;-69
2022/04/08 00:52:41;;;;;;;3.13;1.77;;;;;;;;;;4937956;29;20461;-67
2022/04/08 00:55:07;;;;;;;2.55;1.42;;;;;;;;;;4937718;29;20449;-68
2022/04/08 00:57:33;;;;;;;3.40;1.38;;;;;;;;;;4937627;29;20063;-67
2022/04/08 01:00:07;;;;;;;2.58;1.67;;;;;;;;;;4937539;29;20046;-68
2022/04/08 01:02:33;;;;;;;2.00;1.48;;;;;;;;;;4937812;29;20058;-69
2022/04/08 01:04:58;;;;;;;2.35;1.23;;;;;;;;;;4921031;29;20055;-69
2022/04/08 01:07:23;;;;;;;2.13;1.27;;;;;;;;;;4936578;29;20063;-69
2022/04/08 01:09:50;;;;;;;2.60;1.05;;;;;;;;;;4937417;29;20031;-69
2022/04/08 01:12:16;;;;;;;1.27;1.00;;;;;;;;;;4936129;29;20048;-67
2022/04/08 01:14:41;;;;;;;2.08;1.02;;;;;;;;;;4937569;29;20373;-68
2022/04/08 01:17:07;;;;;;;3.03;1.05;;;;;;;;;;4937576;29;20086;-68
2022/04/08 01:19:32;;;;;;;3.05;1.00;;;;;;;;;;4937163;29;20054;-67
2022/04/08 01:21:58;;;;;;;3.75;0.98;;;;;;;;;;4937475;29;20071;-69
2022/04/08 01:24:23;;;;;;;5.85;1.35;;;;;;;;;;4937179;29;20376;-68
2022/04/08 01:26:51;;;;;;;2.05;1.30;;;;;;;;;;4937345;29;20110;-68
2022/04/08 01:29:16;;;;;;;1.58;1.02;;;;;;;;;;4937327;29;20508;-68
2022/04/08 01:31:45;;;;;;;3.10;1.48;;;;;;;;;;4937105;29;20072;-68
2022/04/08 01:34:10;;;;;;;4.03;1.73;;;;;;;;;;4937020;29;20036;-68
2022/04/08 01:36:37;;;;;;;0.90;0.80;;;;;;;;;;4920288;29;20110;-68
2022/04/08 01:39:03;;;;;;;4.78;1.58;;;;;;;;;;4936914;29;20033;-68
2022/04/08 01:41:31;;;;;;;1.48;1.23;;;;;;;;;;4937085;29;20173;-67
2022/04/08 01:43:56;;;;;;;1.65;1.38;;;;;;;;;;4937135;29;20024;-69
2022/04/08 01:46:21;;;;;;;3.78;1.20;;;;;;;;;;4936766;29;20023;-69
2022/04/08 01:48:47;;;;;;;4.28;1.35;;;;;;;;;;4936771;29;20023;-69
2022/04/08 01:51:12;;;;;;;2.40;1.10;;;;;;;;;;4937023;29;20039;-69
2022/04/08 01:53:38;;;;;;;1.55;1.10;;;;;;;;;;4937005;29;20038;-70
2022/04/08 01:56:03;;;;;;;1.85;1.17;;;;;;;;;;4936938;29;20118;-68
2022/04/08 01:58:29;;;;;;;4.32;1.30;;;;;;;;;;4936561;29;20119;-68
2022/04/08 02:00:55;;;;;;;1.92;1.05;;;;;;;;;;4936786;29;20042;-68
2022/04/08 02:03:20;;;;;;;1.00;0.75;;;;;;;;;;4936573;29;20020;-71
2022/04/08 02:05:46;;;;;;;2.42;0.85;;;;;;;;;;4936804;29;20023;-70
2022/04/08 02:08:11;;;;;;;0.70;0.65;;;;;;;;;;4936766;29;20023;-70
2022/04/08 02:10:37;;;;;;;2.58;1.20;;;;;;;;;;4936466;29;20130;-70
2022/04/08 02:13:02;;;;;;;2.17;1.42;;;;;;;;;;4936974;29;20031;-67
2022/04/08 02:15:31;;;;;;;1.95;1.13;;;;;;;;;;4936400;29;20032;-67
2022/04/08 02:17:56;;;;;;;3.88;1.60;;;;;;;;;;4936081;29;20028;-67
2022/04/08 02:20:22;;;;;;;2.05;1.00;;;;;;;;;;4936371;29;20050;-67
2022/04/08 02:22:47;;;;;;;1.85;0.98;;;;;;;;;;4936341;29;20114;-67
2022/04/08 02:25:13;;;;;;;3.60;1.10;;;;;;;;;;4919359;29;20047;-67
2022/04/08 02:27:38;;;;;;;1.73;1.38;;;;;;;;;;4936842;29;20024;-68
2022/04/08 02:30:04;;;;;;;2.40;1.38;;;;;;;;;;4936329;29;20036;-67
2022/04/08 02:32:29;;;;;;;2.25;1.42;;;;;;;;;;4936077;29;20407;-67
2022/04/08 02:34:54;;;;;;;0.70;0.68;;;;;;;;;;4919146;29;20032;-67
2022/04/08 02:37:20;;;;;;;2.83;1.23;;;;;;;;;;4936492;29;20020;-67
2022/04/08 02:39:45;;;;;;;3.45;1.52;;;;;;;;;;4936150;29;20377;-68
2022/04/08 02:42:11;;;;;;;2.03;1.20;;;;;;;;;;4936188;29;20380;-68
2022/04/08 02:44:36;;;;;;;0.98;0.90;;;;;;;;;;4936256;29;20487;-69
2022/04/08 02:47:01;;;;;;;2.17;0.90;;;;;;;;;;4919198;29;20044;-68
2022/04/08 02:49:27;;;;;;;1.13;0.90;;;;;;;;;;4936640;29;20336;-69
2022/04/08 02:51:52;;;;;;;1.65;1.00;;;;;;;;;;4919029;29;20016;-69
2022/04/08 02:54:18;;;;;;;1.30;0.93;;;;;;;;;;4936016;29;20035;-68
2022/04/08 02:56:43;;;;;;;1.40;0.85;;;;;;;;;;4936372;29;20027;-69
2022/04/08 02:59:09;;;;;;;4.03;0.60;;;;;;;;;;4936271;29;20031;-69
2022/04/08 03:01:34;;;;;;;3.50;1.00;;;;;;;;;;4918910;29;20106;-68
2022/04/08 03:04:00;;;;;;;1.08;0.90;;;;;;;;;;4936323;29;20040;-68
2022/04/08 03:06:26;;;;;;;1.90;1.17;;;;;;;;;;4918960;29;20027;-69
2022/04/08 03:08:52;;;;;;;4.22;1.20;;;;;;;;;;4936209;29;20424;-69
2022/04/08 03:11:17;;;;;;;1.00;0.90;;;;;;;;;;4918948;29;20075;-70
2022/04/08 03:13:43;;;;;;;1.20;0.80;;;;;;;;;;4935852;29;20491;-70
2022/04/08 03:16:08;;;;;;;1.05;0.60;;;;;;;;;;4936141;29;20083;-70
2022/04/08 03:18:33;;;;;;;1.08;0.77;;;;;;;;;;4936133;29;20036;-69
2022/04/08 03:20:59;;;;;;;1.25;0.80;;;;;;;;;;4919100;29;20031;-68
2022/04/08 03:23:24;;;;;;;0.70;0.63;;;;;;;;;;4936071;29;20078;-68
2022/04/08 03:25:50;;;;;;;1.47;0.70;;;;;;;;;;4936117;29;20055;-68
2022/04/08 03:28:15;;;;;;;2.45;0.82;;;;;;;;;;4935637;29;20279;-68
2022/04/08 03:30:40;;;;;;;0.90;0.80;;;;;;;;;;4938449;29;20032;-68
2022/04/08 03:33:06;;;;;;;0.98;0.80;;;;;;;;;;4939454;29;20286;-69
2022/04/08 03:35:31;;;;;;;1.88;0.73;;;;;;;;;;4939709;29;20028;-68
2022/04/08 03:37:57;;;;;;;1.15;0.70;;;;;;;;;;4922461;29;20126;-68
2022/04/08 03:40:23;;;;;;;0.70;0.70;;;;;;;;;;4938999;29;20027;-67
2022/04/08 03:42:49;;;;;;;1.65;0.80;;;;;;;;;;4939347;29;20388;-67
2022/04/08 03:45:14;;;;;;;0.70;0.70;;;;;;;;;;4939019;29;20024;-67
2022/04/08 03:47:40;;;;;;;1.58;0.75;;;;;;;;;;4939492;29;20028;-68
2022/04/08 03:50:06;;;;;;;0.82;0.60;;;;;;;;;;4939323;29;20161;-68
2022/04/08 03:52:32;;;;;;;1.35;0.90;;;;;;;;;;4921792;29;20472;-68
2022/04/08 03:55:01;;;;;;;1.30;1.17;;;;;;;;;;4939087;29;20387;-67
2022/04/08 03:57:27;;;;;;;1.42;0.80;;;;;;;;;;4938790;29;20040;-69
2022/04/08 03:59:52;;;;;;;1.20;0.80;;;;;;;;;;4938868;29;20024;-70
2022/04/08 04:02:18;;;;;;;1.48;1.00;;;;;;;;;;4938905;29;20094;-68
2022/04/08 04:04:43;;;;;;;2.35;1.17;;;;;;;;;;4920983;29;20051;-69
2022/04/08 04:07:08;;;;;;;2.78;1.27;;;;;;;;;;4937461;29;20050;-69
2022/04/08 04:09:34;;;;;;;1.60;1.13;;;;;;;;;;4938549;29;20020;-67
2022/04/08 04:11:59;;;;;;;2.15;1.05;;;;;;;;;;4938403;29;20035;-68
2022/04/08 04:14:25;;;;;;;1.75;1.15;;;;;;;;;;4938878;29;20028;-67
2022/04/08 04:16:50;;;;;;;1.08;0.68;;;;;;;;;;4938542;29;20035;-69
2022/04/08 04:19:16;;;;;;;1.98;1.00;;;;;;;;;;4938262;29;20027;-69
2022/04/08 04:21:42;;;;;;;2.55;0.77;;;;;;;;;;4938729;29;20027;-68
2022/04/08 04:24:07;;;;;;;2.80;0.93;;;;;;;;;;4938565;29;20168;-69
2022/04/08 04:26:33;;;;;;;2.35;0.90;;;;;;;;;;4937475;29;20321;-69
2022/04/08 04:28:58;;;;;;;1.40;0.85;;;;;;;;;;4937588;29;20027;-68
2022/04/08 04:31:24;;;;;;;2.47;1.10;;;;;;;;;;4920335;29;20158;-69
2022/04/08 04:33:49;;;;;;;1.73;1.13;;;;;;;;;;4936975;29;20567;-69
2022/04/08 04:36:15;;;;;;;1.90;0.90;;;;;;;;;;4937244;29;20024;-69
2022/04/08 04:38:40;;;;;;;1.30;0.95;;;;;;;;;;4919604;29;20268;-68
2022/04/08 04:41:06;;;;;;;3.75;1.00;;;;;;;;;;4937339;29;20030;-69
2022/04/08 04:43:31;;;;;;;2.45;0.90;;;;;;;;;;4937958;29;20031;-69
2022/04/08 04:45:56;;;;;;;1.70;1.30;;;;;;;;;;4938032;29;20027;-69
2022/04/08 04:48:22;;;;;;;1.08;0.63;;;;;;;;;;4937771;29;20040;-69
2022/04/08 04:50:48;;;;;;;1.98;0.98;;;;;;;;;;4938051;29;20042;-69
2022/04/08 04:53:13;;;;;;;2.53;1.05;;;;;;;;;;4921060;29;20365;-68
2022/04/08 04:55:39;;;;;;;2.17;0.95;;;;;;;;;;4937686;29;20026;-69
2022/04/08 04:58:05;;;;;;;1.05;0.88;;;;;;;;;;4937728;29;20040;-69
2022/04/08 05:00:30;;;;;;;0.88;0.75;;;;;;;;;;4937567;29;20039;-69
2022/04/08 05:02:57;;;;;;;2.42;1.17;;;;;;;;;;4937543;29;20465;-69
2022/04/08 05:05:22;;;;;;;2.03;0.98;;;;;;;;;;4937760;29;20027;-69
2022/04/08 05:07:48;;;;;;;2.53;1.02;;;;;;;;;;4937990;29;20038;-68
2022/04/08 05:10:13;;;;;;;2.90;1.02;;;;;;;;;;4937442;29;20059;-69
2022/04/08 05:12:38;;;;;;;1.60;1.08;;;;;;;;;;4937356;29;20043;-68
2022/04/08 05:15:09;;;;;;;1.27;0.80;;;;;;;;;;4937398;29;20024;-68
2022/04/08 05:17:35;;;;;;;1.67;0.98;;;;;;;;;;4937274;29;20510;-68
2022/04/08 05:20:07;;;;;;;2.38;0.85;;;;;;;;;;4937162;29;20020;-68
2022/04/08 05:22:33;;;;;;;2.00;0.95;;;;;;;;;;4937262;29;20110;-68
2022/04/08 05:24:59;;;;;;;1.40;0.70;;;;;;;;;;4937477;29;20090;-68
2022/04/08 05:27:25;;;;;;;2.65;0.93;;;;;;;;;;4935877;29;20039;-68
2022/04/08 05:29:50;;;;;;;0.65;0.55;;;;;;;;;;4937066;29;20032;-69
2022/04/08 05:32:16;;;;;;;3.15;1.00;;;;;;;;;;4936832;29;20511;-68
2022/04/08 05:34:41;;;;;;;1.60;0.73;;;;;;;;;;4937276;29;20059;-74
2022/04/08 05:37:07;;;;;;;3.17;0.93;;;;;;;;;;4937000;29;20023;-72
2022/04/08 05:39:33;;;;;;;1.45;0.55;;;;;;;;;;4936874;29;20078;-72
2022/04/08 05:41:58;;;;;;;3.42;1.30;;;;;;;;;;4936905;29;20488;-77
2022/04/08 05:44:23;;;;;;;2.28;1.40;;;;;;;;;;4920245;29;20388;-72
2022/04/08 05:46:49;;;;;;;2.63;1.50;;;;;;;;;;4919869;29;20365;-72
2022/04/08 05:49:14;;;;;;;1.45;0.75;;;;;;;;;;4936801;29;20388;-72
2022/04/08 05:51:39;;;;;;;2.58;1.33;;;;;;;;;;4936701;29;20038;-72
2022/04/08 05:54:05;;;;;;;1.05;0.98;;;;;;;;;;4919659;29;20551;-71
2022/04/08 05:56:30;;;;;;;1.52;1.20;;;;;;;;;;4936717;29;20519;-71
2022/04/08 05:58:57;;;;;;;3.60;1.33;;;;;;;;;;4919592;29;20032;-70
2022/04/08 06:01:22;;;;;;;1.42;0.75;;;;;;;;;;4936801;29;20034;-70
2022/04/08 06:03:57;;;;;;;1.25;1.00;;;;;;;;;;4936554;29;20023;-70
2022/04/08 06:06:23;;;;;;;1.60;1.23;;;;;;;;;;4936808;29;20039;-71
2022/04/08 06:08:48;;;;;;;1.95;0.82;;;;;;;;;;4936835;29;20023;-70
2022/04/08 06:11:14;;;;;;;2.95;1.15;;;;;;;;;;4936491;29;20495;-71
2022/04/08 06:13:40;;;;;;;2.42;1.00;;;;;;;;;;4937010;29;20026;-71
2022/04/08 06:16:06;;;;;;;1.98;0.85;;;;;;;;;;4919484;29;20031;-71
2022/04/08 06:18:31;;;;;;;1.10;0.80;;;;;;;;;;4936195;29;20083;-71
2022/04/08 06:20:56;;;;;;;3.90;1.38;;;;;;;;;;4935075;29;20075;-71
2022/04/08 06:23:22;;;;;;;0.70;0.60;;;;;;;;;;4937005;29;20020;-71
2022/04/08 06:25:48;;;;;;;0.60;0.47;;;;;;;;;;4936142;29;20042;-71
2022/04/08 06:28:13;;;;;;;1.02;0.93;;;;;;;;;;4919370;29;20103;-71
2022/04/08 06:30:42;;;;;;;0.60;0.60;;;;;;;;;;4935947;29;20032;-71
2022/04/08 06:33:07;;;;;;;2.35;1.10;;;;;;;;;;4936081;29;20036;-71
2022/04/08 06:35:33;;;;;;;1.38;0.82;;;;;;;;;;4935721;29;20024;-71
2022/04/08 06:38:03;;;;;;;2.95;0.95;;;;;;;;;;4934542;29;20148;-71
2022/04/08 06:40:28;;;;;;;1.55;1.10;;;;;;;;;;4935862;29;20508;-70
2022/04/08 06:42:55;;;;;;;0.93;0.85;;;;;;;;;;4936471;29;20063;-71
2022/04/08 06:45:21;;;;;;;2.33;1.20;;;;;;;;;;4936162;29;20036;-70
2022/04/08 06:47:48;;;;;;;1.38;0.80;;;;;;;;;;4936412;29;20020;-71
2022/04/08 06:50:13;;;;;;;3.90;1.25;;;;;;;;;;4936676;29;20068;-71
2022/04/08 06:52:39;;;;;;;1.00;0.70;;;;;;;;;;4936362;29;20118;-71
2022/04/08 06:55:04;;;;;;;2.17;1.08;;;;;;;;;;4936087;29;20032;-70
2022/04/08 06:57:30;;;;;;;0.82;0.70;;;;;;;;;;4936322;29;20032;-70
2022/04/08 06:59:55;;;;;;;2.60;1.15;;;;;;;;;;4935911;29;20465;-71
2022/04/08 07:02:20;;;;;;;0.50;0.47;;;;;;;;;;4936300;29;20024;-71
2022/04/08 07:04:47;;;;;;;3.55;0.82;;;;;;;;;;4937703;29;20528;-71
2022/04/08 07:07:13;;;;;;;1.33;0.80;;;;;;;;;;4939750;29;20049;-71
2022/04/08 07:09:38;;;;;;;2.15;1.10;;;;;;;;;;4939662;29;20504;-71
2022/04/08 07:12:03;;;;;;;2.47;1.02;;;;;;;;;;4939950;29;20023;-71
2022/04/08 07:14:29;;;;;;;0.40;0.40;;;;;;;;;;4939824;29;20036;-70
2022/04/08 07:16:54;;;;;;;0.95;0.65;;;;;;;;;;4939901;29;20030;-72
2022/04/08 07:19:19;;;;;;;1.85;1.15;;;;;;;;;;4939834;29;20035;-70
2022/04/08 07:21:45;;;;;;;2.00;1.00;;;;;;;;;;4922452;29;20019;-70
2022/04/08 07:24:10;;;;;;;3.55;1.08;;;;;;;;;;4939374;29;20063;-71
2022/04/08 07:26:35;;;;;;;1.30;1.13;;;;;;;;;;4922644;29;20024;-70
2022/04/08 07:29:01;;;;;;;2.80;1.13;;;;;;;;;;4939317;29;20040;-71
2022/04/08 07:31:26;;;;;;;2.88;0.93;;;;;;;;;;4939283;29;20098;-70
2022/04/08 07:33:52;;;;;;;2.05;1.23;;;;;;;;;;4922233;29;20461;-71
2022/04/08 07:36:17;;;;;;;4.13;1.25;;;;;;;;;;4939493;29;20153;-71
2022/04/08 07:38:43;;;;;;;1.75;0.80;;;;;;;;;;4938902;29;20036;-71
2022/04/08 07:41:08;;;;;;;0.82;0.40;;;;;;;;;;4938932;29;20383;-71
2022/04/08 07:43:33;;;;;;;0.73;0.63;;;;;;;;;;4938988;29;20038;-70
2022/04/08 07:45:58;;;;;;;1.30;0.90;;;;;;;;;;4938493;29;20032;-70
2022/04/08 07:48:24;;;;;;;1.38;0.85;;;;;;;;;;4938895;29;20287;-70
2022/04/08 07:50:49;;;;;;;2.53;0.60;;;;;;;;;;4938952;29;20027;-70
2022/04/08 07:53:15;;;;;;;1.52;0.65;;;;;;;;;;4938349;29;20028;-71
2022/04/08 07:55:41;;;;;;;1.38;0.80;;;;;;;;;;4938735;29;20023;-70
2022/04/08 07:58:07;;;;;;;1.70;0.73;;;;;;;;;;4939089;29;20032;-70
2022/04/08 08:00:32;;;;;;;2.22;0.70;;;;;;;;;;4938934;29;20074;-65
2022/04/08 08:02:58;;;;;;;1.65;0.65;;;;;;;;;;4938842;29;20031;-64
2022/04/08 08:05:24;;;;;;;1.60;0.75;;;;;;;;;;4938724;29;20022;-63
2022/04/08 08:07:50;;;;;;;1.02;0.73;;;;;;;;;;4921465;29;20035;-64
2022/04/08 08:10:16;;;;;;;0.52;0.40;;;;;;;;;;4938510;29;20084;-65
2022/04/08 08:12:42;;;;;;;0.77;0.57;;;;;;;;;;4939033;29;20031;-65
2022/04/08 08:15:07;;;;;;;0.73;0.60;;;;;;;;;;4937441;29;20444;-64
2022/04/08 08:17:33;;;;;;;0.32;0.32;;;;;;;;;;4921359;29;20032;-65
2022/04/08 08:19:58;;;;;;;1.13;0.60;;;;;;;;;;4938316;29;20115;-65
2022/04/08 08:22:24;;;;;;;1.08;0.63;;;;;;;;;;4921087;29;20366;-64
2022/04/08 08:24:49;;;;;;;1.35;1.00;;;;;;;;;;4921144;29;20024;-65
2022/04/08 08:27:15;;;;;;;0.95;0.50;;;;;;;;;;4936881;29;20071;-64
2022/04/08 08:29:40;;;;;;;1.77;0.52;;;;;;;;;;4921403;29;20015;-64
2022/04/08 08:32:06;;;;;;;0.73;0.35;;;;;;;;;;4937883;29;20058;-64
2022/04/08 08:34:31;;;;;;;1.33;0.60;;;;;;;;;;4938000;29;20034;-64
2022/04/08 08:36:59;;;;;;;1.65;0.52;;;;;;;;;;4937904;29;20119;-64
2022/04/08 08:39:25;;;;;;;2.45;1.02;;;;;;;;;;4937936;29;20024;-65
2022/04/08 08:41:51;;;;;;;1.58;0.77;;;;;;;;;;4938019;29;20028;-63
2022/04/08 08:44:19;;;;;;;1.55;0.80;;;;;;;;;;4937826;29;20024;-64
2022/04/08 08:46:45;;;;;;;1.67;0.80;;;;;;;;;;4920745;29;20370;-64
2022/04/08 08:49:14;;;;;;;2.55;0.80;;;;;;;;;;4938159;29;20027;-64
2022/04/08 08:51:41;;;;;;;0.93;0.60;;;;;;;;;;4937801;29;20047;-64
2022/04/08 08:54:06;;;;;;;0.70;0.63;;;;;;;;;;4937800;29;20521;-65
2022/04/08 08:56:32;;;;;;;2.05;0.80;;;;;;;;;;4937591;29;20114;-65
2022/04/08 08:58:57;;;;;;;1.60;0.85;;;;;;;;;;4920558;29;20027;-64
2022/04/08 09:01:22;;;;;;;0.95;0.75;;;;;;;;;;4937613;29;20392;-64
2022/04/08 09:03:48;;;;;;;1.35;1.00;;;;;;;;;;4937479;29;20031;-64
2022/04/08 09:06:13;;;;;;;1.17;0.82;;;;;;;;;;4937580;29;20506;-64
2022/04/08 09:08:38;;;;;;;0.47;0.40;;;;;;;;;;4937042;29;20034;-64
2022/04/08 09:11:04;;;;;;;1.23;0.70;;;;;;;;;;4937417;29;20032;-70
2022/04/08 09:13:30;;;;;;;0.80;0.63;;;;;;;;;;4937412;29;20042;-70
2022/04/08 09:15:56;;;;;;;3.83;0.70;;;;;;;;;;4937338;29;20039;-70
2022/04/08 09:18:22;;;;;;;1.15;0.70;;;;;;;;;;4937399;29;20515;-71
2022/04/08 09:20:49;;;;;;;0.90;0.65;;;;;;;;;;4937258;29;20059;-71
2022/04/08 09:23:15;;;;;;;2.08;1.20;;;;;;;;;;4920042;29;20055;-71
2022/04/08 09:25:41;;;;;;;1.20;0.73;;;;;;;;;;4919987;29;20439;-70
2022/04/08 09:28:10;;;;;;;0.50;0.50;;;;;;;;;;4936216;29;20099;-71
2022/04/08 09:30:37;;;;;;;2.95;1.10;;;;;;;;;;4920285;29;20134;-71
2022/04/08 09:33:23;;;;;;;0.63;0.63;;;;;;;;;;4937328;29;20499;-71
2022/04/08 09:35:49;;;;;;;0.55;0.55;;;;;;;;;;4936940;29;20062;-71
2022/04/08 09:38:18;;;;;;;1.27;0.93;;;;;;;;;;4936829;29;20050;-70
2022/04/08 09:40:44;;;;;;;0.30;0.30;;;;;;;;;;4936930;29;20161;-70
2022/04/08 09:43:10;;;;;;;0.55;0.50;;;;;;;;;;4936941;29;20041;-71
2022/04/08 09:45:38;;;;;;;0.65;0.50;;;;;;;;;;4936614;29;20058;-71
2022/04/08 09:48:05;;;;;;;2.75;0.73;;;;;;;;;;4919782;29;20486;-70
2022/04/08 09:50:31;;;;;;;0.80;0.63;;;;;;;;;;4936494;29;20043;-70
2022/04/08 09:52:56;;;;;;;1.58;0.70;;;;;;;;;;4937323;29;20028;-70
2022/04/08 09:55:23;;;;;;;2.22;0.70;;;;;;;;;;4936701;29;20090;-72
2022/04/08 09:57:50;;;;;;;1.48;0.70;;;;;;;;;;4919934;29;20027;-71
2022/04/08 10:00:16;;;;;;;0.77;0.68;;;;;;;;;;4936474;29;20035;-71
2022/04/08 10:02:44;;;;;;;0.65;0.47;;;;;;;;;;4937038;29;20095;-71
2022/04/08 10:05:09;;;;;;;0.70;0.50;;;;;;;;;;4936517;29;20040;-71
2022/04/08 10:07:35;;;;;;;0.30;0.30;;;;;;;;;;4936497;29;20031;-64
2022/04/08 10:10:00;;;;;;;0.80;0.65;;;;;;;;;;4936510;29;20035;-64
2022/04/08 10:12:38;;;;;;;0.90;0.67;;;;;;;;;;4937036;29;20456;-63
2022/04/08 10:15:09;;;;;;;1.08;0.70;;;;;;;;;;4919904;29;20283;-64
2022/04/08 10:17:34;;;;;;;1.92;0.90;;;;;;;;;;4935200;29;20399;-63
2022/04/08 10:20:15;;;;;;;0.85;0.60;;;;;;;;;;4936165;29;20027;-63
2022/04/08 10:22:41;;;;;;;0.93;0.40;;;;;;;;;;4936597;29;20034;-63
2022/04/08 10:25:12;;;;;;;0.45;0.45;;;;;;;;;;4936221;29;20439;-64
2022/04/08 10:27:38;;;;;;;1.83;0.65;;;;;;;;;;4936114;29;20036;-63
2022/04/08 10:30:10;;;;;;;0.22;0.22;;;;;;;;;;4936159;29;20067;-63
2022/04/08 10:32:38;;;;;;;0.93;0.70;;;;;;;;;;4936086;29;20445;-63
2022/04/08 10:35:32;;;;;;;1.17;0.57;;;;;;;;;;4936326;29;20043;-63
2022/04/08 10:37:59;;;;;;;1.48;0.57;;;;;;;;;;4916132;29;20083;-64
2022/04/08 10:40:34;;;;;;;0.80;0.52;;;;;;;;;;4939995;29;20082;-65
2022/04/08 10:43:01;;;;;;;0.70;0.60;;;;;;;;;;4940098;29;20038;-65
2022/04/08 10:45:26;;;;;;;0.60;0.60;;;;;;;;;;4940087;29;20023;-64
2022/04/08 10:47:52;;;;;;;1.60;0.63;;;;;;;;;;4939656;29;20031;-63
2022/04/08 10:50:30;;;;;;;0.98;0.40;;;;;;;;;;4939978;29;20028;-63
2022/04/08 10:53:02;;;;;;;3.00;0.75;;;;;;;;;;4940268;29;20031;-63
2022/04/08 10:55:28;;;;;;;0.80;0.80;;;;;;;;;;4940017;29;20087;-63
2022/04/08 10:58:02;;;;;;;1.20;0.95;;;;;;;;;;4939836;29;20028;-63
2022/04/08 11:00:38;;;;;;;0.30;0.30;;;;;;;;;;4939743;29;20032;-65
2022/04/08 11:03:03;;;;;;;0.68;0.45;;;;;;;;;;4939735;29;20050;-64
2022/04/08 11:05:34;;;;;;;2.38;0.57;;;;;;;;;;4939608;29;20023;-64
2022/04/08 11:08:00;;;;;;;1.77;0.68;;;;;;;;;;4939385;29;20043;-64
2022/04/08 11:10:27;;;;;;;1.15;0.60;;;;;;;;;;4939622;29;20032;-70
2022/04/08 11:12:54;;;;;;;0.30;0.22;;;;;;;;;;4939936;29;20104;-63
2022/04/08 11:15:21;;;;;;;0.82;0.60;;;;;;;;;;4939567;29;20028;-63
2022/04/08 11:17:47;;;;;;;0.73;0.52;;;;;;;;;;4939525;29;20028;-64
2022/04/08 11:20:16;;;;;;;1.02;0.65;;;;;;;;;;4939404;29;20486;-63
2022/04/08 11:22:43;;;;;;;0.70;0.50;;;;;;;;;;4939413;29;20028;-63
2022/04/08 11:25:08;;;;;;;1.33;0.63;;;;;;;;;;4939495;29;20338;-64
2022/04/08 11:27:34;;;;;;;1.23;0.52;;;;;;;;;;4939242;29;20115;-64
2022/04/08 11:29:59;;;;;;;1.27;0.70;;;;;;;;;;4939207;29;20110;-66
2022/04/08 11:32:29;;;;;;;1.90;0.73;;;;;;;;;;4939137;29;20095;-64
2022/04/08 11:34:55;;;;;;;0.95;0.63;;;;;;;;;;4922162;29;20035;-63
2022/04/08 11:37:27;;;;;;;2.30;0.70;;;;;;;;;;4939243;29;20027;-63
2022/04/08 11:39:56;;;;;;;1.75;0.80;;;;;;;;;;4939072;29;20468;-64
2022/04/08 11:42:21;;;;;;;1.27;0.80;;;;;;;;;;4939277;29;20111;-64
2022/04/08 11:44:47;;;;;;;0.30;0.30;;;;;;;;;;4939188;29;20051;-65
2022/04/08 11:47:14;;;;;;;0.60;0.60;;;;;;;;;;4937759;29;20476;-64
2022/04/08 11:49:39;;;;;;;0.88;0.73;;;;;;;;;;4938276;29;20036;-64
2022/04/08 11:52:05;;;;;;;1.30;0.70;;;;;;;;;;4938630;29;20094;-64
2022/04/08 11:54:38;;;;;;;0.88;0.73;;;;;;;;;;4939140;29;20037;-63
2022/04/08 11:57:07;;;;;;;1.13;0.60;;;;;;;;;;4938954;29;20031;-63
2022/04/08 11:59:33;;;;;;;1.20;0.63;;;;;;;;;;4921697;29;20154;-63
2022/04/08 12:01:59;;;;;;;1.25;0.80;;;;;;;;;;4938886;29;20103;-64
2022/04/08 12:04:25;;;;;;;2.33;0.90;;;;;;;;;;4938872;29;20028;-64
2022/04/08 12:06:50;;;;;;;1.10;0.57;;;;;;;;;;4938417;29;20046;-65
2022/04/08 12:09:17;;;;;;;1.42;0.73;;;;;;;;;;4937481;29;20098;-64
2022/04/08 12:11:44;;;;;;;2.05;0.88;;;;;;;;;;4938519;29;20034;-64
2022/04/08 12:14:10;;;;;;;2.05;0.80;;;;;;;;;;4938478;29;20384;-63
2022/04/08 12:16:39;;;;;;;0.40;0.40;;;;;;;;;;4938467;29;20131;-63
2022/04/08 12:19:05;;;;;;;1.20;0.90;;;;;;;;;;4938228;29;20020;-63
2022/04/08 12:21:31;;;;;;;0.93;0.90;;;;;;;;;;4919295;29;20059;-63
2022/04/08 12:24:00;;;;;;;1.58;0.77;;;;;;;;;;4937301;29;20104;-63
2022/04/08 12:26:33;;;;;;;2.95;0.80;;;;;;;;;;4937259;29;20552;-64
2022/04/08 12:29:07;;;;;;;1.20;0.85;;;;;;;;;;4937153;29;20055;-63
2022/04/08 12:31:33;;;;;;;0.80;0.80;;;;;;;;;;4937146;29;20043;-63
2022/04/08 12:33:59;;;;;;;0.93;0.70;;;;;;;;;;4920497;29;20095;-71
2022/04/08 12:36:25;;;;;;;1.10;0.68;;;;;;;;;;4938118;29;20496;-71
2022/04/08 12:38:50;;;;;;;1.90;0.80;;;;;;;;;;4921253;29;20071;-71
2022/04/08 12:41:15;;;;;;;1.77;1.00;;;;;;;;;;4937864;29;20040;-70
2022/04/08 12:43:41;;;;;;;0.60;0.60;;;;;;;;;;4938008;29;20103;-70
2022/04/08 12:46:06;;;;;;;0.98;0.60;;;;;;;;;;4937869;29;20363;-70
2022/04/08 12:48:32;;;;;;;0.85;0.73;;;;;;;;;;4937778;29;20031;-70
2022/04/08 12:50:58;;;;;;;1.02;0.70;;;;;;;;;;4937861;29;20039;-71
2022/04/08 12:53:23;;;;;;;2.13;0.73;;;;;;;;;;4920418;29;20020;-71
2022/04/08 12:55:49;;;;;;;0.75;0.43;;;;;;;;;;4937452;29;20123;-71
2022/04/08 12:58:15;;;;;;;1.92;1.00;;;;;;;;;;4937852;29;20030;-71
2022/04/08 13:00:40;;;;;;;1.73;0.60;;;;;;;;;;4937572;29;20039;-71
2022/04/08 13:03:06;;;;;;;1.77;0.85;;;;;;;;;;4937420;29;20019;-71
2022/04/08 13:05:33;;;;;;;0.60;0.60;;;;;;;;;;4937438;29;20480;-70
2022/04/08 13:07:58;;;;;;;2.22;0.88;;;;;;;;;;4937526;29;20028;-71
2022/04/08 13:10:23;;;;;;;1.63;1.00;;;;;;;;;;4937280;29;20477;-71
2022/04/08 13:12:49;;;;;;;1.90;0.95;;;;;;;;;;4920175;29;20031;-70
2022/04/08 13:15:14;;;;;;;1.88;0.80;;;;;;;;;;4937492;29;20024;-71
2022/04/08 13:17:41;;;;;;;1.00;0.75;;;;;;;;;;4937335;29;20027;-71
2022/04/08 13:20:07;;;;;;;1.35;0.80;;;;;;;;;;4937183;29;20067;-71
2022/04/08 13:22:32;;;;;;;1.90;1.10;;;;;;;;;;4920246;29;20051;-71
2022/04/08 13:24:58;;;;;;;1.42;1.10;;;;;;;;;;4920146;29;20043;-71
2022/04/08 13:27:23;;;;;;;3.75;2.05;;;;;;;;;;4920575;29;20028;-71
2022/04/08 13:29:49;;;;;;;2.53;1.88;;;;;;;;;;4937670;29;20027;-71
2022/04/08 13:32:18;;;;;;;2.28;1.48;;;;;;;;;;4937590;29;20043;-71
2022/04/08 13:34:43;;;;;;;6.50;2.72;;;;;;;;;;4937468;29;20086;-70
2022/04/08 13:37:09;;;;;;;3.95;2.30;;;;;;;;;;4936379;29;20024;-70
2022/04/08 13:39:36;;;;;;;3.47;2.08;;;;;;;;;;4937215;29;20464;-71
2022/04/08 13:42:01;;;;;;;4.50;2.78;;;;;;;;;;4937164;29;20055;-71
2022/04/08 13:44:26;;;;;;;3.53;2.50;;;;;;;;;;4937454;29;20453;-71
2022/04/08 13:46:52;;;;;;;2.97;2.70;;;;;;;;;;4919782;29;20035;-71
2022/04/08 13:49:17;;;;;;;5.53;2.70;;;;;;;;;;4936781;29;20027;-71
2022/04/08 13:51:42;;;;;;;2.58;1.88;;;;;;;;;;4937069;29;20461;-70
2022/04/08 13:54:08;;;;;;;5.13;2.55;;;;;;;;;;4935510;29;20040;-70
2022/04/08 13:56:33;;;;;;;3.17;2.50;;;;;;;;;;4919667;29;20114;-71
2022/04/08 13:58:59;;;;;;;4.22;2.28;;;;;;;;;;4936939;29;20024;-71
2022/04/08 14:01:24;;;;;;;4.07;2.85;;;;;;;;;;4936890;29;20468;-71
2022/04/08 14:03:50;;;;;;;7.55;2.60;;;;;;;;;;4919524;29;20524;-70
2022/04/08 14:06:15;;;;;;;4.15;2.03;;;;;;;;;;4936878;29;20052;-70
2022/04/08 14:08:41;;;;;;;2.75;2.10;;;;;;;;;;4936544;29;20500;-70
2022/04/08 14:11:06;;;;;;;3.40;2.15;;;;;;;;;;4936532;29;20039;-70
2022/04/08 14:13:33;;;;;;;2.90;2.10;;;;;;;;;;4936312;29;20062;-70
2022/04/08 14:15:58;;;;;;;5.57;1.88;;;;;;;;;;4936308;29;20376;-70
2022/04/08 14:18:23;;;;;;;2.03;0.90;;;;;;;;;;4919537;29;20039;-70
2022/04/08 14:20:49;;;;;;;1.88;1.50;;;;;;;;;;4916875;29;20035;-71
2022/04/08 14:23:15;;;;;;;2.92;2.13;;;;;;;;;;4934781;29;20032;-63
2022/04/08 14:25:41;;;;;;;2.67;1.48;;;;;;;;;;4935697;29;20024;-70
2022/04/08 14:28:06;;;;;;;1.63;1.52;;;;;;;;;;4933605;29;20035;-71
2022/04/08 14:30:32;;;;;;;2.17;1.85;;;;;;;;;;4933413;29;20036;-71
2022/04/08 14:32:58;;;;;;;2.95;1.90;;;;;;;;;;4933509;29;20048;-70
2022/04/08 14:35:23;;;;;;;2.75;1.60;;;;;;;;;;4933432;29;20557;-71
2022/04/08 14:37:49;;;;;;;3.13;1.85;;;;;;;;;;4933690;29;20407;-70